Latest Coastal Weather Observations for Shark Bay Airport

IDW60701

Issued at 3:55 pm WST Wednesday 26 November 2014 (issued every 10 minutes, with the page automatically refreshed every 10 minutes)

About coastal observations | Map of coastal stations | Coastal observations for WA | Marine services | Other Formats
Station Details ID: 006105 Name: SHARK BAY AIRPORT Lat: -25.89 Lon: 113.58 Height: 33.8 m
Data from the previous 72 hours. | See also: Recent months for locations in Western Australia
Date/Time
WST
Temp

°C
Wind Pressure Rain
since 9am
mm
Weather Cloud Vis
km
Sea
Height
m
Swell
Dir
 
Speed
knots
Gust
knots
hPa Trend Height
m
Period
s
Dir
26/03:30pm 28.2 WNW 18 23 1007.1 - 0.0 - - - - - - -
26/03:00pm 28.0 WNW 19 25 1007.4 - 0.0 - - - - - - -
26/02:30pm 29.2 WNW 18 24 1007.6 - 0.0 - - - - - - -
26/02:00pm 29.8 WNW 18 25 1007.8 - 0.0 - - - - - - -
26/01:30pm 29.5 WNW 19 25 1007.9 - 0.0 - - - - - - -
26/01:00pm 29.2 WNW 17 22 1007.8 - 0.0 - - - - - - -
26/12:30pm 30.0 WNW 16 22 1007.7 - 0.0 - - - - - - -
26/12:00pm 30.8 NW 17 22 1007.7 - 0.0 - - - - - - -
26/11:30am 31.0 NW 14 22 1007.8 - 0.0 - - - - - - -
26/11:00am 30.4 NNW 12 17 1008.0 - 0.0 - - - - - - -
26/10:30am 30.0 NW 13 18 1008.2 - 0.0 - - - - - - -
26/10:00am 28.8 NNW 13 18 1008.4 - 0.0 - - - - - - -
26/09:30am 27.4 NW 13 19 1008.5 - 0.0 - - - - - - -
26/09:00am 27.1 NNW 13 18 1008.6 - 0.0 - - - - - - -
26/08:30am 25.8 NW 12 15 1008.5 - 0.0 - - - - - - -
26/08:00am 24.6 NNW 11 15 1008.2 - 0.0 - - - - - - -
26/07:30am 23.1 NNW 10 14 1008.0 - 0.0 - - - - - - -
26/07:00am 21.4 NNW 9 11 1007.7 - 0.0 - - - - - - -
26/06:30am 20.9 NNW 8 11 1007.5 - 0.0 - - - - - - -
26/06:00am 20.2 NNW 8 11 1007.4 - 0.0 - - - - - - -
26/05:30am 20.3 NNW 9 11 1007.2 - 0.0 - - - - - - -
26/05:00am 19.7 NNW 5 7 1007.0 - 0.0 - - - - - - -
26/04:30am 19.5 N 6 7 1006.7 - 0.0 - - - - - - -
26/04:00am 19.5 N 6 8 1006.5 - 0.0 - - - - - - -
26/03:30am 17.7 NNE 5 6 1006.4 - 0.0 - - - - - - -
26/03:00am 17.5 NNW 2 4 1006.1 - 0.0 - - - - - - -
26/02:30am 18.7 N 4 5 1006.2 - 0.0 - - - - - - -
26/02:00am 19.2 WNW 6 7 1006.2 - 0.0 - - - - - - -
26/01:30am 19.6 WNW 7 7 1006.3 - 0.0 - - - - - - -
26/01:00am 19.2 W 4 5 1006.7 - 0.0 - - - - - - -
26/12:30am 19.4 W 6 7 1006.9 - 0.0 - - - - - - -
26/12:00am 19.7 WSW 6 7 1007.2 - 0.0 - - - - - - -
 
Date/Time
WST
Temp

°C
Wind Pressure Rain
since 9am
mm
Weather Cloud Vis
km
Sea
Height
m
Swell
Dir
 
Speed
knots
Gust
knots
hPa Trend Height
m
Period
s
Dir
25/11:30pm 19.6 W 5 5 1007.6 - 0.0 - - - - - - -
25/11:00pm 20.1 W 5 6 1007.9 - 0.0 - - - - - - -
25/10:30pm 20.4 W 6 7 1007.9 - 0.0 - - - - - - -
25/10:00pm 20.8 W 5 6 1007.9 - 0.0 - - - - - - -
25/09:30pm 21.6 WSW 7 8 1007.7 - 0.0 - - - - - - -
25/09:00pm 22.2 WSW 6 7 1007.6 - 0.0 - - - - - - -
25/08:30pm 22.8 W 8 10 1007.5 - 0.0 - - - - - - -
25/08:00pm 23.3 WSW 7 9 1007.5 - 0.0 - - - - - - -
25/07:30pm 24.1 WSW 7 9 1007.6 - 0.0 - - - - - - -
25/07:00pm 25.3 W 10 13 1007.4 - 0.0 - - - - - - -
25/06:30pm 26.6 W 11 14 1007.2 - 0.0 - - - - - - -
25/06:00pm 28.2 W 13 16 1007.0 - 0.0 - - - - - - -
25/05:30pm 29.6 W 12 15 1006.8 - 0.0 - - - - - - -
25/05:00pm 30.2 W 13 16 1006.9 - 0.0 - - - - - - -
25/04:30pm 30.7 W 14 17 1006.9 - 0.0 - - - - - - -
25/04:00pm 31.0 W 12 17 1006.8 - 0.0 - - - - - - -
25/03:30pm 32.5 WNW 14 18 1006.9 - 0.0 - - - - - - -
25/03:00pm 33.4 WNW 13 18 1007.1 - 0.0 - - - - - - -
25/02:30pm 33.8 WNW 15 21 1007.1 - 0.0 - - - - - - -
25/02:00pm 34.4 WNW 14 19 1007.4 - 0.0 - - - - - - -
25/01:30pm 34.6 WNW 14 18 1007.5 - 0.0 - - - - - - -
25/01:00pm 35.0 WNW 14 19 1007.6 - 0.0 - - - - - - -
25/12:30pm 34.3 WNW 13 17 1007.6 - 0.0 - - - - - - -
25/12:00pm 34.5 WNW 13 21 1007.7 - 0.0 - - - - - - -
25/11:30am 36.1 N 11 15 1007.7 - 0.0 - - - - - - -
25/11:00am 35.1 N 11 16 1008.0 - 0.0 - - - - - - -
25/10:30am 35.4 NE 11 17 1008.1 - 0.0 - - - - - - -
25/10:00am 35.1 ENE 12 17 1008.2 - 0.0 - - - - - - -
25/09:30am 34.7 ENE 12 17 1008.3 - 0.0 - - - - - - -
25/09:00am 33.2 E 9 13 1008.5 - 0.0 - - - - - - -
25/08:30am 31.1 ESE 5 9 1008.6 - 0.0 - - - - - - -
25/08:00am 27.9 SSE 6 9 1008.7 - 0.0 - - - - - - -
25/07:30am 26.1 S 9 11 1008.8 - 0.0 - - - - - - -
25/07:00am 23.9 S 10 13 1008.9 - 0.0 - - - - - - -
25/06:30am 21.8 S 8 12 1008.8 - 0.0 - - - - - - -
25/06:00am 20.0 SSW 8 9 1008.7 - 0.0 - - - - - - -
25/05:30am 19.5 SSW 7 9 1008.6 - 0.0 - - - - - - -
25/05:00am 19.7 S 9 12 1008.7 - 0.0 - - - - - - -
25/04:30am 19.9 S 8 11 1008.7 - 0.0 - - - - - - -
25/04:00am 20.1 S 9 13 1008.9 - 0.0 - - - - - - -
25/03:30am 20.3 S 10 13 1009.2 - 0.0 - - - - - - -
25/03:00am 20.4 S 12 17 1009.3 - 0.0 - - - - - - -
25/02:30am 20.4 S 13 19 1009.5 - 0.0 - - - - - - -
25/02:00am 20.4 S 13 20 1009.7 - 0.0 - - - - - - -
25/01:30am 20.6 S 14 23 1010.2 - 0.0 - - - - - - -
25/01:00am 20.7 S 15 20 1010.3 - 0.0 - - - - - - -
25/12:30am 20.8 S 14 22 1010.5 - 0.0 - - - - - - -
25/12:00am 21.0 S 14 20 1010.8 - 0.0 - - - - - - -
 
Date/Time
WST
Temp

°C
Wind Pressure Rain
since 9am
mm
Weather Cloud Vis
km
Sea
Height
m
Swell
Dir
 
Speed
knots
Gust
knots
hPa Trend Height
m
Period
s
Dir
24/11:32pm 21.1 S 15 25 1011.1 - 0.0 - - - - - - -
24/11:30pm 21.2 S 16 25 1011.1 - 0.0 - - - - - - -
24/11:00pm 21.3 S 15 21 1011.2 - 0.0 - - - - - - -
24/10:30pm 21.4 S 16 27 1011.3 - 0.0 - - - - - - -
24/10:25pm 21.5 S 16 27 1011.3 - 0.0 - - - - - - -
24/10:00pm 21.6 S 17 25 1011.4 - 0.0 - - - - - - -
24/09:30pm 21.8 S 17 22 1011.4 - 0.0 - - - - - - -
24/09:00pm 21.8 S 17 26 1011.2 - 0.0 - - - - - - -
24/08:30pm 22.0 S 19 25 1011.0 - 0.0 - - - - - - -
24/08:00pm 22.2 S 19 26 1010.8 - 0.0 - - - - - - -
24/07:50pm 22.3 S 18 28 1010.7 - 0.0 - - - - - - -
24/07:30pm 22.5 S 18 24 1010.6 - 0.0 - - - - - - -
24/07:00pm 23.3 S 20 31 1010.3 - 0.0 - - - - - - -
24/06:57pm 23.5 S 19 31 1010.3 - 0.0 - - - - - - -
24/06:30pm 24.7 S 16 25 1009.9 - 0.0 - - - - - - -
24/06:00pm 25.9 S 18 27 1009.5 - 0.0 - - - - - - -
24/05:54pm 26.6 S 16 27 1009.5 - 0.0 - - - - - - -
24/05:30pm 27.3 S 18 27 1009.3 - 0.0 - - - - - - -
24/05:00pm 28.2 SSW 18 22 1009.2 - 0.0 - - - - - - -
24/04:30pm 29.1 SSW 18 24 1009.2 - 0.0 - - - - - - -
24/04:00pm 31.3 SSW 17 21 1009.4 - 0.0 - - - - - - -
24/03:30pm 32.9 SSW 17 23 1009.4 - 0.0 - - - - - - -
24/03:00pm 32.9 SW 18 24 1009.5 - 0.0 - - - - - - -
24/02:30pm 34.3 SSW 17 23 1009.6 - 0.0 - - - - - - -
24/02:28pm 34.0 SSW 17 23 1009.6 - 0.0 - - - - - - -
24/02:00pm 36.1 SE 7 13 1010.2 - 0.0 - - - - - - -
24/01:30pm 36.4 E 10 15 1010.5 - 0.0 - - - - - - -
24/01:00pm 35.7 ESE 13 18 1010.9 - 0.0 - - - - - - -
24/12:30pm 35.0 SE 14 19 1011.3 - 0.0 - - - - - - -
24/12:00pm 34.2 E 14 21 1011.9 - 0.0 - - - - - - -
24/11:30am 33.1 ESE 14 20 1012.3 - 0.0 - - - - - - -
24/11:00am 31.7 ESE 15 23 1012.8 - 0.0 - - - - - - -
24/10:30am 29.9 SE 15 24 1013.2 - 0.0 - - - - - - -
24/10:00am 28.7 ESE 14 19 1013.7 - 0.0 - - - - - - -
24/09:47am 27.6 SE 16 26 1013.7 - 0.0 - - - - - - -
24/09:30am 27.3 ESE 15 22 1013.9 - 0.0 - - - - - - -
24/09:00am 25.2 SE 15 21 1014.2 - 0.0 - - - - - - -
24/08:30am 23.9 SE 15 22 1014.3 - 0.0 - - - - - - -
24/08:00am 22.1 SE 14 21 1014.7 - 0.0 - - - - - - -
24/07:30am 20.8 SE 13 19 1014.7 - 0.0 - - - - - - -
24/07:00am 19.5 SSE 14 19 1014.7 - 0.0 - - - - - - -
24/06:30am 18.2 SSE 11 18 1014.4 - 0.0 - - - - - - -
24/06:00am 17.0 SSE 11 15 1014.4 - 0.0 - - - - - - -
24/05:30am 16.4 SSE 10 14 1014.2 - 0.0 - - - - - - -
24/05:00am 16.7 SSE 11 15 1014.0 - 0.0 - - - - - - -
24/04:30am 16.9 SSE 11 17 1013.9 - 0.0 - - - - - - -
24/04:00am 17.1 SSE 11 16 1013.9 - 0.0 - - - - - - -
24/03:30am 17.4 S 13 21 1013.9 - 0.0 - - - - - - -
24/03:00am 17.7 S 12 16 1013.8 - 0.0 - - - - - - -
24/02:30am 18.0 SSE 12 18 1013.8 - 0.0 - - - - - - -
24/02:00am 18.3 S 13 18 1013.8 - 0.0 - - - - - - -
24/01:30am 18.6 S 14 22 1013.9 - 0.0 - - - - - - -
24/01:00am 18.8 S 15 22 1014.0 - 0.0 - - - - - - -
24/12:30am 19.1 S 16 23 1014.1 - 0.0 - - - - - - -
24/12:00am 19.2 S 14 20 1014.2 - 0.0 - - - - - - -
 
Date/Time
WST
Temp

°C
Wind Pressure Rain
since 9am
mm
Weather Cloud Vis
km
Sea
Height
m
Swell
Dir
 
Speed
knots
Gust
knots
hPa Trend Height
m
Period
s
Dir
23/11:30pm 19.4 S 15 23 1014.3 - 0.0 - - - - - - -
23/11:12pm 19.6 S 15 26 1014.3 - 0.0 - - - - - - -
23/11:00pm 19.5 S 16 23 1014.4 - 0.0 - - - - - - -
23/10:30pm 19.5 S 16 22 1014.6 - 0.0 - - - - - - -
23/10:00pm 19.6 S 17 25 1014.5 - 0.0 - - - - - - -
23/09:30pm 19.8 S 18 28 1014.3 - 0.0 - - - - - - -
23/09:08pm 19.7 S 16 26 1014.3 - 0.0 - - - - - - -
23/09:00pm 19.8 S 19 26 1014.2 - 0.0 - - - - - - -
23/08:46pm 19.9 S 17 27 1014.0 - 0.0 - - - - - - -
23/08:30pm 20.0 S 19 25 1013.9 - 0.0 - - - - - - -
23/08:20pm 20.0 S 18 28 1013.9 - 0.0 - - - - - - -
23/08:00pm 20.1 S 19 26 1013.7 - 0.0 - - - - - - -
23/07:36pm 20.4 S 20 30 1013.5 - 0.0 - - - - - - -
23/07:30pm 20.4 S 21 29 1013.5 - 0.0 - - - - - - -
23/07:00pm 20.8 S 20 26 1013.2 - 0.0 - - - - - - -
23/06:30pm 21.6 S 20 26 1012.9 - 0.0 - - - - - - -
23/06:00pm 22.6 SSW 21 29 1012.6 - 0.0 - - - - - - -
23/05:30pm 23.0 S 21 28 1012.5 - 0.0 - - - - - - -
23/05:12pm 24.3 SSW 20 30 1012.6 - 0.0 - - - - - - -
23/05:00pm 24.1 SSW 20 27 1012.6 - 0.0 - - - - - - -
23/04:30pm 24.9 SSW 18 25 1012.7 - 0.0 - - - - - - -
23/04:00pm 25.9 S 17 24 1012.6 - 0.0 - - - - - - -

Other Formats:

Comma delimited format used in spreadsheet applications
http://www.bom.gov.au/fwo/IDW60701/IDW60701.95402.axf

JavaScript Object Notation format (JSON) in row-major order
http://www.bom.gov.au/fwo/IDW60701/IDW60701.95402.json